createdAt,value
2022-10-01T00:04:11.492Z,8.43
2022-10-01T00:06:59.147Z,8.46
2022-10-01T00:09:42.094Z,8.46
2022-10-01T00:12:24.903Z,8.47
2022-10-01T00:15:13.345Z,8.45
2022-10-01T00:17:56.485Z,8.41
2022-10-01T00:20:43.469Z,8.38
2022-10-01T00:23:27.706Z,8.36
2022-10-01T00:26:13.426Z,8.38
2022-10-01T00:28:58.247Z,8.39
2022-10-01T00:31:41.233Z,8.31
2022-10-01T00:34:24.902Z,8.29
2022-10-01T00:37:10.341Z,8.27
2022-10-01T00:39:54.576Z,8.26
2022-10-01T00:42:37.434Z,8.25
2022-10-01T00:45:20.319Z,8.26
2022-10-01T00:48:03.198Z,8.24
2022-10-01T00:50:49.103Z,8.24
2022-10-01T00:53:31.991Z,8.25
2022-10-01T00:56:16.229Z,8.27
2022-10-01T00:59:00.249Z,8.28
2022-10-01T01:01:43.245Z,8.29
2022-10-01T01:04:26.417Z,8.34
2022-10-01T01:07:10.683Z,8.39
2022-10-01T01:09:55.235Z,8.42
2022-10-01T01:12:52.333Z,8.53
2022-10-01T01:15:38.535Z,8.56
2022-10-01T01:18:28.443Z,8.55
2022-10-01T01:21:20.917Z,8.56
2022-10-01T01:24:23.056Z,8.58
2022-10-01T01:27:20.395Z,8.65
2022-10-01T01:30:09.052Z,8.71
2022-10-01T01:33:03.242Z,8.72
2022-10-01T01:35:52.122Z,8.74
2022-10-01T01:38:45.098Z,8.75
2022-10-01T01:41:30.672Z,8.70
2022-10-01T01:44:17.667Z,8.70
2022-10-01T01:47:05.160Z,8.70
2022-10-01T01:49:48.774Z,8.70
2022-10-01T01:52:31.969Z,8.72
2022-10-01T01:55:14.837Z,8.72
2022-10-01T01:57:58.514Z,8.72
2022-10-01T02:00:41.503Z,8.72
2022-10-01T02:03:29.471Z,8.72
2022-10-01T02:06:21.829Z,8.72
2022-10-01T02:09:12.198Z,8.73
2022-10-01T02:12:02.855Z,8.82
2022-10-01T02:14:53.436Z,8.83
2022-10-01T02:17:46.475Z,8.84
2022-10-01T02:20:35.994Z,8.84
2022-10-01T02:23:23.403Z,8.84
2022-10-01T02:26:11.943Z,8.84
2022-10-01T02:29:00.219Z,8.84
2022-10-01T02:31:43.215Z,8.83
2022-10-01T02:34:30.566Z,8.84
2022-10-01T02:37:15.607Z,8.84
2022-10-01T02:40:00.455Z,8.84
2022-10-01T02:42:46.647Z,8.86
2022-10-01T02:45:35.133Z,8.87
2022-10-01T02:48:18.904Z,8.87
2022-10-01T02:51:13.615Z,8.87
2022-10-01T02:54:04.342Z,8.89
2022-10-01T02:57:05.895Z,8.88
2022-10-01T02:59:48.919Z,8.90
2022-10-01T03:02:33.137Z,8.91
2022-10-01T03:05:16.771Z,8.91
2022-10-01T03:07:59.655Z,8.90
2022-10-01T03:10:46.734Z,8.90
2022-10-01T03:13:29.839Z,8.89
2022-10-01T03:16:12.724Z,8.90
2022-10-01T03:18:55.687Z,8.88
2022-10-01T03:21:38.524Z,8.87
2022-10-01T03:24:21.415Z,8.86
2022-10-01T03:27:05.658Z,8.85
2022-10-01T03:29:48.937Z,8.84
2022-10-01T03:32:31.883Z,8.80
2022-10-01T03:35:14.818Z,8.76
2022-10-01T03:37:58.439Z,8.72
2022-10-01T03:40:41.298Z,8.71
2022-10-01T03:43:28.915Z,8.70
2022-10-01T03:46:12.206Z,8.71
2022-10-01T03:48:57.230Z,8.72
2022-10-01T03:51:40.131Z,8.70
2022-10-01T03:54:23.267Z,8.71
2022-10-01T03:57:06.163Z,8.70
2022-10-01T03:59:50.363Z,8.72
2022-10-01T04:02:33.309Z,8.72
2022-10-01T04:05:16.336Z,8.73
2022-10-01T04:07:59.766Z,8.76
2022-10-01T04:10:43.227Z,8.76
2022-10-01T04:13:26.166Z,8.77
2022-10-01T04:16:10.910Z,8.77
2022-10-01T04:18:53.624Z,8.78
2022-10-01T04:21:36.965Z,8.77
2022-10-01T04:24:20.206Z,8.77
2022-10-01T04:27:03.059Z,8.78
2022-10-01T04:29:45.979Z,8.80
2022-10-01T04:32:30.204Z,8.81
2022-10-01T04:35:13.117Z,8.81
2022-10-01T04:38:01.969Z,8.81
2022-10-01T04:40:45.097Z,8.81
2022-10-01T04:43:27.997Z,8.78
2022-10-01T04:46:10.842Z,8.76
2022-10-01T04:48:55.120Z,8.74
2022-10-01T04:51:37.936Z,8.72
2022-10-01T04:54:20.792Z,8.73
2022-10-01T04:57:03.602Z,8.72
2022-10-01T04:59:46.483Z,8.66
2022-10-01T05:02:29.432Z,8.66
2022-10-01T05:05:13.718Z,8.67
2022-10-01T05:07:56.692Z,8.67
2022-10-01T05:10:39.655Z,8.69
2022-10-01T05:13:22.527Z,8.71
2022-10-01T05:16:05.616Z,8.73
2022-10-01T05:18:48.783Z,8.79
2022-10-01T05:21:33.227Z,8.75
2022-10-01T05:24:16.111Z,8.69
2022-10-01T05:26:58.962Z,8.66
2022-10-01T05:29:41.963Z,8.58
2022-10-01T05:32:25.007Z,8.56
2022-10-01T05:35:09.512Z,8.57
2022-10-01T05:37:58.151Z,8.56
2022-10-01T05:40:40.976Z,8.52
2022-10-01T05:43:25.502Z,8.50
2022-10-01T05:46:10.356Z,8.45
2022-10-01T05:48:53.270Z,8.40
2022-10-01T05:51:36.682Z,8.35
2022-10-01T05:54:23.255Z,8.36
2022-10-01T05:57:06.546Z,8.35
2022-10-01T05:59:49.390Z,8.29
2022-10-01T06:02:32.268Z,8.31
2022-10-01T06:05:15.275Z,8.25
2022-10-01T06:07:58.771Z,8.30
2022-10-01T06:10:43.029Z,8.28
2022-10-01T06:13:26.449Z,8.29
2022-10-01T06:16:09.356Z,8.29
2022-10-01T06:18:57.341Z,8.16
2022-10-01T06:21:40.182Z,8.08
2022-10-01T06:24:22.970Z,8.08
2022-10-01T06:27:07.172Z,8.09
2022-10-01T06:29:50.015Z,8.11
2022-10-01T06:32:35.069Z,8.12
2022-10-01T06:35:20.308Z,8.14
2022-10-01T06:38:03.294Z,8.20
2022-10-01T06:40:46.178Z,8.26
2022-10-01T06:43:31.935Z,8.33
2022-10-01T06:46:14.795Z,8.39
2022-10-01T06:48:57.692Z,8.42
2022-10-01T06:51:58.190Z,8.49
2022-10-01T06:54:41.104Z,8.54
2022-10-01T06:57:23.999Z,8.60
2022-10-01T07:00:09.583Z,8.65
2022-10-01T07:02:52.961Z,8.69
2022-10-01T07:05:35.845Z,8.71
2022-10-01T07:08:18.874Z,8.77
2022-10-01T07:11:03.574Z,8.82
2022-10-01T07:13:49.038Z,8.86
2022-10-01T07:16:35.526Z,8.90
2022-10-01T07:19:18.349Z,8.93
2022-10-01T07:22:01.183Z,9.00
2022-10-01T07:24:44.045Z,9.05
2022-10-01T07:27:26.947Z,9.09
2022-10-01T07:30:10.708Z,9.11
2022-10-01T07:32:55.327Z,9.12
2022-10-01T07:35:38.850Z,9.12
2022-10-01T07:38:21.747Z,9.16
2022-10-01T07:41:04.763Z,9.16
2022-10-01T07:43:47.712Z,9.18
2022-10-01T07:46:34.588Z,9.20
2022-10-01T07:49:19.133Z,9.16
2022-10-01T07:52:02.391Z,9.16
2022-10-01T07:54:45.216Z,9.19
2022-10-01T07:57:28.118Z,9.23
2022-10-01T08:00:12.095Z,9.28
2022-10-01T08:02:56.336Z,9.36
2022-10-01T08:05:42.464Z,9.47
2022-10-01T08:08:25.352Z,9.55
2022-10-01T08:11:09.319Z,9.63
2022-10-01T08:13:52.744Z,9.69
2022-10-01T08:16:37.215Z,9.74
2022-10-01T08:19:20.136Z,9.73
2022-10-01T08:22:04.359Z,9.70
2022-10-01T08:24:47.866Z,9.67
2022-10-01T08:27:30.725Z,9.60
2022-10-01T08:30:13.571Z,9.55
2022-10-01T08:32:56.922Z,9.54
2022-10-01T08:35:40.640Z,9.55
2022-10-01T08:38:25.139Z,9.57
2022-10-01T08:41:20.124Z,9.56
2022-10-01T08:44:07.457Z,9.56
2022-10-01T08:46:52.222Z,9.58
2022-10-01T08:49:38.607Z,9.48
2022-10-01T08:52:25.889Z,9.51
2022-10-01T08:55:15.130Z,9.49
2022-10-01T08:58:03.411Z,9.46
2022-10-01T09:00:48.712Z,9.49
2022-10-01T09:03:32.716Z,9.49
2022-10-01T09:06:20.864Z,9.49
2022-10-01T09:09:27.322Z,9.46
2022-10-01T09:12:31.768Z,9.45
2022-10-01T09:15:28.062Z,9.44
2022-10-01T09:18:23.411Z,9.43
2022-10-01T09:21:13.280Z,9.43
2022-10-01T09:24:04.628Z,9.46
2022-10-01T09:26:49.479Z,9.37
2022-10-01T09:29:40.722Z,9.40
2022-10-01T09:32:26.737Z,9.43
2022-10-01T09:35:25.305Z,9.48
2022-10-01T09:38:16.743Z,9.50
2022-10-01T09:41:00.341Z,9.57
2022-10-01T09:43:45.011Z,9.68
2022-10-01T09:46:29.022Z,9.74
2022-10-01T09:49:20.133Z,9.81
2022-10-01T09:52:08.353Z,9.90
2022-10-01T09:54:58.693Z,10.01
2022-10-01T09:57:45.858Z,10.08
2022-10-01T10:00:29.097Z,10.10
2022-10-01T10:03:23.709Z,10.08
2022-10-01T10:06:07.194Z,10.09
2022-10-01T10:08:50.122Z,10.10
2022-10-01T10:11:35.198Z,10.15
2022-10-01T10:14:23.399Z,10.20
2022-10-01T10:17:08.546Z,10.22
2022-10-01T10:19:53.790Z,10.23
2022-10-01T10:22:37.054Z,10.25
2022-10-01T10:25:24.444Z,10.32
2022-10-01T10:28:20.378Z,10.38
2022-10-01T10:31:03.434Z,10.39
2022-10-01T10:33:48.956Z,10.43
2022-10-01T10:36:36.768Z,10.47
2022-10-01T10:39:24.976Z,10.51
2022-10-01T10:42:08.676Z,10.51
2022-10-01T10:44:54.616Z,10.49
2022-10-01T10:47:46.236Z,10.52
2022-10-01T10:50:34.979Z,10.56
2022-10-01T10:53:24.323Z,10.61
2022-10-01T10:56:15.076Z,10.64
2022-10-01T10:59:09.165Z,10.69
2022-10-01T11:01:52.837Z,10.72
2022-10-01T11:04:42.559Z,10.72
2022-10-01T11:07:27.338Z,10.73
2022-10-01T11:10:22.918Z,10.68
2022-10-01T11:13:36.131Z,10.68
2022-10-01T11:16:37.500Z,10.61
2022-10-01T11:19:36.659Z,10.49
2022-10-01T11:22:37.072Z,10.32
2022-10-01T11:25:31.692Z,10.30
2022-10-01T11:28:30.518Z,10.21
2022-10-01T11:31:24.838Z,10.13
2022-10-01T11:34:39.875Z,10.08
2022-10-01T11:37:39.090Z,10.07
2022-10-01T11:40:28.151Z,9.94
2022-10-01T11:43:20.272Z,9.95
2022-10-01T11:46:08.508Z,9.83
2022-10-01T11:48:57.277Z,9.77
2022-10-01T11:51:44.600Z,9.77
2022-10-01T11:54:32.324Z,9.71
2022-10-01T11:57:35.742Z,9.56
2022-10-01T12:00:34.041Z,9.47
2022-10-01T12:03:36.392Z,9.35
2022-10-01T12:06:31.675Z,9.24
2022-10-01T12:09:27.856Z,9.14
2022-10-01T12:12:23.434Z,8.99
2022-10-01T12:15:23.311Z,8.98
2022-10-01T12:18:25.140Z,8.93
2022-10-01T12:21:27.682Z,8.85
2022-10-01T12:24:22.545Z,8.78
2022-10-01T12:27:33.545Z,8.51
2022-10-01T12:30:48.373Z,8.47
2022-10-01T12:34:14.088Z,8.47
2022-10-01T12:37:10.574Z,8.43
2022-10-01T12:40:18.510Z,8.38
2022-10-01T12:43:30.228Z,8.26
2022-10-01T12:46:36.079Z,8.23
2022-10-01T12:49:28.187Z,8.23
2022-10-01T12:52:30.791Z,8.19
2022-10-01T12:55:30.835Z,8.25
2022-10-01T12:58:35.519Z,8.20
2022-10-01T13:01:32.310Z,8.20
2022-10-01T13:04:55.372Z,8.17
2022-10-01T13:08:05.812Z,8.14
2022-10-01T13:11:22.905Z,8.13
2022-10-01T13:14:19.456Z,8.09
2022-10-01T13:17:13.660Z,7.96
2022-10-01T13:20:18.743Z,7.98
2022-10-01T13:23:12.387Z,7.96
2022-10-01T13:26:11.605Z,7.88
2022-10-01T13:32:30.288Z,8.07
2022-10-01T13:35:36.523Z,8.07
2022-10-01T13:38:56.383Z,8.10
2022-10-01T13:41:57.105Z,8.13
2022-10-01T13:44:50.568Z,8.09
2022-10-01T13:47:47.795Z,8.11
2022-10-01T13:50:42.857Z,8.04
2022-10-01T13:53:33.735Z,8.05
2022-10-01T13:56:37.863Z,8.08
2022-10-01T14:02:49.806Z,8.11
2022-10-01T14:05:52.611Z,8.05
2022-10-01T14:09:14.033Z,8.15
2022-10-01T14:12:24.215Z,8.15
2022-10-01T14:15:37.829Z,8.10
2022-10-01T14:18:51.344Z,8.15
2022-10-01T14:21:56.452Z,8.18
2022-10-01T14:25:04.375Z,8.13
2022-10-01T14:28:25.748Z,8.16
2022-10-01T14:31:22.771Z,8.19
2022-10-01T14:34:41.724Z,8.15
2022-10-01T14:37:28.966Z,8.17
2022-10-01T14:40:20.886Z,8.16
2022-10-01T14:43:20.303Z,8.17
2022-10-01T14:46:17.987Z,8.18
2022-10-01T14:49:45.710Z,8.21
2022-10-01T14:52:39.728Z,8.27
2022-10-01T14:55:42.077Z,8.22
2022-10-01T14:58:37.737Z,8.26
2022-10-01T15:01:46.494Z,8.25
2022-10-01T15:04:58.551Z,8.33
2022-10-01T15:07:54.550Z,8.34
2022-10-01T15:10:48.224Z,8.36
2022-10-01T15:17:07.176Z,8.35
2022-10-01T15:20:18.443Z,8.41
2022-10-01T15:23:24.773Z,8.39
2022-10-01T15:26:31.343Z,8.45
2022-10-01T15:33:35.850Z,8.46
2022-10-01T15:36:30.148Z,8.49
2022-10-01T15:39:36.016Z,8.51
2022-10-01T15:42:38.966Z,8.48
2022-10-01T15:45:31.304Z,8.52
2022-10-01T15:48:37.084Z,8.54
2022-10-01T15:51:33.776Z,8.52
2022-10-01T15:54:30.220Z,8.55
2022-10-01T15:57:33.548Z,8.55
2022-10-01T16:09:50.282Z,8.57
2022-10-01T16:12:34.541Z,8.58
2022-10-01T16:15:29.756Z,8.50
2022-10-01T16:18:23.124Z,8.59
2022-10-01T16:21:09.198Z,8.63
2022-10-01T16:23:54.083Z,8.65
2022-10-01T16:26:39.284Z,8.66
2022-10-01T16:29:27.320Z,8.66
2022-10-01T16:32:15.001Z,8.68
2022-10-01T16:35:17.058Z,8.72
2022-10-01T16:38:00.318Z,8.73
2022-10-01T16:40:45.856Z,8.73
2022-10-01T16:43:28.770Z,8.75
2022-10-01T16:46:13.011Z,8.76
2022-10-01T16:48:55.914Z,8.71
2022-10-01T16:51:40.941Z,8.77
2022-10-01T16:54:26.626Z,8.78
2022-10-01T16:57:09.491Z,8.81
2022-10-01T16:59:52.366Z,8.82
2022-10-01T17:02:36.876Z,8.85
2022-10-01T17:05:22.555Z,8.87
2022-10-01T17:08:11.407Z,8.89
2022-10-01T17:10:58.645Z,8.92
2022-10-01T17:13:42.291Z,8.92
2022-10-01T17:16:25.310Z,8.93
2022-10-01T17:19:09.675Z,8.95
2022-10-01T17:21:53.246Z,8.92
2022-10-01T17:24:36.066Z,8.91
2022-10-01T17:27:18.927Z,8.93
2022-10-01T17:30:01.835Z,8.96
2022-10-01T17:32:45.051Z,8.93
2022-10-01T17:35:30.543Z,8.95
2022-10-01T17:38:13.988Z,8.99
2022-10-01T17:40:57.040Z,9.00
2022-10-01T17:43:41.321Z,9.02
2022-10-01T17:46:24.212Z,9.03
2022-10-01T17:49:08.845Z,9.02
2022-10-01T17:51:53.478Z,9.05
2022-10-01T17:54:37.566Z,9.08
2022-10-01T17:57:20.948Z,9.08
2022-10-01T18:00:04.688Z,9.06
2022-10-01T18:02:55.303Z,9.09
2022-10-01T18:05:38.215Z,9.10
2022-10-01T18:08:33.295Z,9.12
2022-10-01T18:11:26.225Z,9.12
2022-10-01T18:14:09.443Z,9.16
2022-10-01T18:16:52.597Z,9.10
2022-10-01T18:22:39.275Z,9.17
2022-10-01T18:25:23.450Z,9.17
2022-10-01T18:28:06.375Z,9.17
2022-10-01T18:30:50.544Z,9.19
2022-10-01T18:33:33.458Z,9.12
2022-10-01T18:36:23.972Z,9.17
2022-10-01T18:39:15.146Z,9.17
2022-10-01T18:41:59.660Z,9.12
2022-10-01T18:44:42.800Z,9.18
2022-10-01T18:47:35.771Z,9.19
2022-10-01T18:50:25.811Z,9.12
2022-10-01T18:53:25.843Z,9.17
2022-10-01T18:56:24.666Z,9.20
2022-10-01T18:59:34.236Z,9.11
2022-10-01T19:02:25.982Z,9.15
2022-10-01T19:05:42.285Z,9.16
2022-10-01T19:08:39.727Z,9.16
2022-10-01T19:11:29.961Z,9.20
2022-10-01T19:14:39.519Z,9.25
2022-10-01T19:17:44.206Z,9.26
2022-10-01T19:20:45.808Z,9.22
2022-10-01T19:23:55.583Z,9.21
2022-10-01T19:26:45.207Z,9.26
2022-10-01T19:29:44.150Z,9.30
2022-10-01T19:32:34.574Z,9.26
2022-10-01T19:35:20.796Z,9.28
2022-10-01T19:38:07.497Z,9.26
2022-10-01T19:40:55.777Z,9.27
2022-10-01T19:43:43.306Z,9.31
2022-10-01T19:46:33.167Z,9.27
2022-10-01T19:49:22.331Z,9.31
2022-10-01T19:52:13.099Z,9.32
2022-10-01T19:55:00.296Z,9.35
2022-10-01T19:57:45.192Z,9.36
2022-10-01T20:00:28.055Z,9.35
2022-10-01T20:03:18.041Z,9.38
2022-10-01T20:06:08.686Z,9.40
2022-10-01T20:08:53.724Z,9.42
2022-10-01T20:11:41.690Z,9.33
2022-10-01T20:14:54.555Z,9.37
2022-10-01T20:17:54.723Z,9.40
2022-10-01T20:20:43.974Z,9.39
2022-10-01T20:23:47.587Z,9.40
2022-10-01T20:26:36.748Z,9.42
2022-10-01T20:29:39.436Z,9.42
2022-10-01T20:32:28.332Z,9.42
2022-10-01T20:35:28.629Z,9.41
2022-10-01T20:38:16.144Z,9.37
2022-10-01T20:41:06.661Z,9.36
2022-10-01T20:43:52.854Z,9.42
2022-10-01T20:46:39.351Z,9.43
2022-10-01T20:49:27.975Z,9.43
2022-10-01T20:52:21.506Z,9.46
2022-10-01T20:55:07.853Z,9.46
2022-10-01T20:57:55.742Z,9.48
2022-10-01T21:00:39.483Z,9.51
2022-10-01T21:03:27.420Z,9.53
2022-10-01T21:06:15.087Z,9.51
2022-10-01T21:09:01.844Z,9.46
2022-10-01T21:11:47.157Z,9.39
2022-10-01T21:14:36.684Z,9.37
2022-10-01T21:17:31.642Z,9.25
2022-10-01T21:20:44.188Z,9.25
2022-10-01T21:23:39.604Z,9.18
2022-10-01T21:26:29.266Z,9.18
2022-10-01T21:29:31.372Z,9.17
2022-10-01T21:32:30.237Z,9.17
2022-10-01T21:35:22.514Z,9.13
2022-10-01T21:38:12.710Z,9.11
2022-10-01T21:41:09.388Z,9.09
2022-10-01T21:44:11.267Z,9.08
2022-10-01T21:46:59.577Z,9.08
2022-10-01T21:49:55.850Z,9.06
2022-10-01T21:52:47.429Z,9.07
2022-10-01T21:55:55.641Z,8.97
2022-10-01T21:58:50.725Z,9.02
2022-10-01T22:01:50.525Z,8.96
2022-10-01T22:04:40.983Z,8.96
2022-10-01T22:07:32.809Z,8.91
2022-10-01T22:10:18.418Z,8.93
2022-10-01T22:13:04.821Z,8.92
2022-10-01T22:15:49.935Z,8.91
2022-10-01T22:18:37.881Z,8.90
2022-10-01T22:21:29.043Z,8.90
2022-10-01T22:24:17.557Z,8.85
2022-10-01T22:27:06.597Z,8.78
2022-10-01T22:29:56.294Z,8.78
2022-10-01T22:32:44.499Z,8.77
2022-10-01T22:35:31.964Z,8.76
2022-10-01T22:38:22.073Z,8.75
2022-10-01T22:41:11.193Z,8.73
2022-10-01T22:43:54.306Z,8.72
2022-10-01T22:47:01.374Z,8.73
2022-10-01T22:50:05.045Z,8.73
2022-10-01T22:53:00.417Z,8.72
2022-10-01T22:55:53.418Z,8.72
2022-10-01T22:58:53.116Z,8.72
2022-10-01T23:01:45.453Z,8.71
2022-10-01T23:04:41.483Z,8.72
2022-10-01T23:07:31.372Z,8.70
2022-10-01T23:10:20.665Z,8.70
2022-10-01T23:13:15.259Z,8.68
2022-10-01T23:16:05.932Z,8.67
2022-10-01T23:18:59.829Z,8.65
2022-10-01T23:25:56.687Z,8.61
2022-10-01T23:28:54.925Z,8.56
2022-10-01T23:31:44.597Z,8.55
2022-10-01T23:34:37.631Z,8.54
2022-10-01T23:37:53.406Z,8.49
2022-10-01T23:40:40.204Z,8.48
2022-10-01T23:43:27.482Z,8.48
2022-10-01T23:46:15.414Z,8.46
2022-10-01T23:49:05.448Z,8.47
2022-10-01T23:51:54.112Z,8.44
2022-10-01T23:54:40.069Z,8.45
2022-10-01T23:57:28.305Z,8.43
